Time;durP1;ratioP1;P1;durP2;ratioP2;P2;SDS_P1;SDS_P2;PMS_P1;PMS_P2;Temp;Humidity;BMP_temperature;BMP_pressure;BME280_temperature;BME280_humidity;BME280_pressure;Samples;Min_cycle;Max_cycle;Signal;HPM_P1;HPM_P2
2021/01/24 00:00:13;;;;;;;13.20;11.90;;;6.00;99.90;;;;;;4990256;28;20655;-67
2021/01/24 00:02:58;;;;;;;16.00;12.77;;;6.00;99.90;;;;;;4996115;28;20656;-66
2021/01/24 00:05:44;;;;;;;14.93;11.87;;;6.00;99.90;;;;;;4986653;28;20726;-66
2021/01/24 00:08:29;;;;;;;16.27;12.73;;;6.00;99.90;;;;;;4983714;28;20755;-66
2021/01/24 00:11:13;;;;;;;13.63;12.33;;;5.90;99.90;;;;;;4991242;28;20628;-66
2021/01/24 00:13:58;;;;;;;14.07;11.57;;;5.90;99.90;;;;;;4987288;28;20600;-66
2021/01/24 00:16:42;;;;;;;15.63;13.53;;;5.90;99.90;;;;;;4982481;28;20584;-66
2021/01/24 00:19:26;;;;;;;13.37;11.60;;;5.90;99.90;;;;;;4984791;28;20755;-66
2021/01/24 00:22:13;;;;;;;13.97;12.47;;;5.90;99.90;;;;;;4987157;28;20592;-66
2021/01/24 00:24:57;;;;;;;14.40;12.00;;;5.90;99.90;;;;;;4987597;28;20956;-67
2021/01/24 00:27:42;;;;;;;14.30;11.50;;;5.90;99.90;;;;;;4993507;28;21367;-66
2021/01/24 00:30:26;;;;;;;14.23;12.47;;;5.80;99.90;;;;;;4992036;28;20656;-67
2021/01/24 00:33:11;;;;;;;13.70;12.20;;;5.80;99.90;;;;;;4988397;28;20597;-66
2021/01/24 00:35:55;;;;;;;15.80;12.60;;;5.80;99.90;;;;;;4977571;28;20589;-66
2021/01/24 00:38:40;;;;;;;13.70;11.30;;;5.80;99.90;;;;;;4980650;28;21033;-66
2021/01/24 00:41:24;;;;;;;15.60;12.60;;;5.80;99.90;;;;;;4979682;28;20661;-66
2021/01/24 00:44:08;;;;;;;15.37;12.20;;;5.80;99.90;;;;;;4989206;28;20676;-66
2021/01/24 00:46:53;;;;;;;14.43;12.20;;;5.80;99.90;;;;;;4983011;28;20651;-66
2021/01/24 00:49:37;;;;;;;13.10;11.60;;;5.80;99.90;;;;;;4990285;28;21282;-66
2021/01/24 00:52:22;;;;;;;13.80;12.33;;;5.80;99.90;;;;;;4998714;28;20605;-66
2021/01/24 00:55:07;;;;;;;14.03;12.30;;;5.70;99.90;;;;;;4999996;28;20589;-68
2021/01/24 00:57:54;;;;;;;14.23;12.53;;;5.70;99.90;;;;;;5000700;28;20652;-66
2021/01/24 01:00:38;;;;;;;14.80;11.57;;;5.80;99.90;;;;;;4993038;28;20644;-66
2021/01/24 01:03:23;;;;;;;15.67;13.20;;;5.80;99.90;;;;;;4990132;28;20636;-66
2021/01/24 01:06:10;;;;;;;13.43;11.03;;;5.80;99.90;;;;;;4983619;28;20764;-66
2021/01/24 01:08:55;;;;;;;15.20;12.10;;;5.80;99.90;;;;;;4978890;28;20644;-66
2021/01/24 01:11:39;;;;;;;15.00;13.43;;;5.70;99.90;;;;;;4994158;28;21190;-66
2021/01/24 01:14:24;;;;;;;14.80;12.30;;;5.80;99.90;;;;;;4986084;28;20624;-66
2021/01/24 01:17:08;;;;;;;16.93;12.60;;;5.70;99.90;;;;;;4984006;28;20628;-66
2021/01/24 01:19:53;;;;;;;15.00;12.87;;;5.80;99.90;;;;;;4987577;28;20655;-66
2021/01/24 01:22:39;;;;;;;14.80;13.07;;;5.80;99.90;;;;;;4983842;28;20663;-66
2021/01/24 01:25:24;;;;;;;18.00;14.07;;;5.80;99.90;;;;;;4988525;28;20605;-66
2021/01/24 01:28:09;;;;;;;14.87;12.77;;;5.80;99.90;;;;;;4981283;28;20636;-66
2021/01/24 01:31:03;;;;;;;13.90;11.90;;;5.80;99.90;;;;;;4991245;28;20711;-66
2021/01/24 01:33:48;;;;;;;14.50;12.57;;;5.80;99.90;;;;;;4990674;28;20953;-66
2021/01/24 01:36:35;;;;;;;16.80;12.50;;;5.80;99.90;;;;;;4980409;28;20588;-67
2021/01/24 01:39:20;;;;;;;15.33;12.03;;;5.80;99.90;;;;;;5000999;28;20676;-66
2021/01/24 01:42:11;;;;;;;19.87;13.70;;;5.80;99.90;;;;;;4990033;28;20671;-66
2021/01/24 01:44:55;;;;;;;16.20;13.47;;;5.80;99.90;;;;;;4987666;28;20624;-66
2021/01/24 01:47:41;;;;;;;14.40;12.40;;;5.80;99.90;;;;;;4994600;28;21098;-66
2021/01/24 01:50:25;;;;;;;15.13;12.80;;;5.80;99.90;;;;;;4983225;28;21217;-66
2021/01/24 01:53:10;;;;;;;13.67;12.20;;;5.80;99.90;;;;;;4984330;28;21082;-66
2021/01/24 01:55:54;;;;;;;15.50;12.33;;;5.80;99.90;;;;;;4987361;28;20624;-66
2021/01/24 01:58:40;;;;;;;16.10;13.87;;;5.70;99.90;;;;;;4979280;28;20685;-66
2021/01/24 02:01:43;;;;;;;15.40;13.10;;;5.70;99.90;;;;;;4981497;28;20624;-66
2021/01/24 02:04:35;;;;;;;15.60;13.10;;;5.80;99.90;;;;;;4982280;28;20624;-66
2021/01/24 02:07:26;;;;;;;16.13;12.93;;;5.70;99.90;;;;;;4994177;28;22154;-66
2021/01/24 02:10:21;;;;;;;14.63;12.50;;;5.70;99.90;;;;;;5008878;22;20749;-65
2021/01/24 02:13:33;;;;;;;16.97;13.13;;;5.70;99.90;;;;;;5005351;28;20715;-64
2021/01/24 02:16:18;;;;;;;18.10;12.93;;;5.70;99.90;;;;;;5007997;28;20616;-64
2021/01/24 02:19:09;;;;;;;15.10;12.17;;;5.70;99.90;;;;;;4996130;28;20727;-64
2021/01/24 02:21:59;;;;;;;14.33;12.83;;;5.60;99.90;;;;;;5001751;28;20647;-64
2021/01/24 02:24:51;;;;;;;14.37;12.60;;;5.60;99.90;;;;;;5003968;28;20703;-64
2021/01/24 02:27:47;;;;;;;14.57;11.70;;;5.60;99.90;;;;;;4995575;28;20710;-66
2021/01/24 02:30:35;;;;;;;16.47;13.53;;;5.60;99.90;;;;;;5008055;28;21274;-65
2021/01/24 02:33:26;;;;;;;18.30;13.00;;;5.60;99.90;;;;;;5009651;28;20995;-67
2021/01/24 02:36:12;;;;;;;16.13;13.23;;;5.60;99.90;;;;;;4993132;28;20693;-64
2021/01/24 02:39:00;;;;;;;15.03;12.67;;;5.60;99.90;;;;;;5017860;28;20767;-66
2021/01/24 02:41:45;;;;;;;15.33;12.63;;;5.60;99.90;;;;;;5021918;28;20599;-66
2021/01/24 02:44:31;;;;;;;15.23;13.00;;;5.60;99.90;;;;;;5002514;28;20667;-65
2021/01/24 02:47:16;;;;;;;14.80;13.13;;;5.50;99.90;;;;;;5019535;28;20584;-63
2021/01/24 02:50:02;;;;;;;15.10;12.50;;;5.50;99.90;;;;;;5006705;28;20655;-64
2021/01/24 02:52:48;;;;;;;14.23;12.13;;;5.50;99.90;;;;;;5008930;28;20683;-66
2021/01/24 02:55:33;;;;;;;15.97;12.87;;;5.40;99.90;;;;;;4995810;28;20593;-64
2021/01/24 02:58:18;;;;;;;16.67;13.43;;;5.40;99.90;;;;;;4999218;28;20638;-66
2021/01/24 03:01:03;;;;;;;19.13;13.67;;;5.40;99.90;;;;;;5008410;28;20680;-65
2021/01/24 03:03:47;;;;;;;17.87;13.57;;;5.40;99.90;;;;;;4985002;28;20760;-65
2021/01/24 03:06:32;;;;;;;15.20;12.53;;;5.30;99.90;;;;;;5015348;28;20600;-63
2021/01/24 03:09:17;;;;;;;15.63;12.70;;;5.30;99.90;;;;;;5020222;28;20698;-65
2021/01/24 03:12:07;;;;;;;17.07;13.20;;;5.30;99.90;;;;;;5018943;28;20592;-66
2021/01/24 03:14:52;;;;;;;15.23;12.40;;;5.30;99.90;;;;;;5001374;28;21127;-66
2021/01/24 03:17:38;;;;;;;18.70;13.93;;;5.20;99.90;;;;;;4992904;28;21217;-66
2021/01/24 03:20:26;;;;;;;15.80;13.20;;;5.20;99.90;;;;;;5011855;28;20663;-65
2021/01/24 03:23:12;;;;;;;15.37;12.90;;;5.20;99.90;;;;;;5023191;28;20792;-65
2021/01/24 03:25:58;;;;;;;14.30;12.63;;;5.20;99.90;;;;;;5021737;28;20595;-64
2021/01/24 03:28:43;;;;;;;16.57;13.63;;;5.20;99.90;;;;;;5013899;28;20627;-66
2021/01/24 03:31:30;;;;;;;15.63;12.50;;;5.20;99.90;;;;;;4991408;28;20735;-66
2021/01/24 03:34:23;;;;;;;16.77;13.07;;;5.20;99.90;;;;;;5016175;28;20603;-65
2021/01/24 03:37:08;;;;;;;17.53;13.50;;;5.10;99.90;;;;;;4995980;28;20773;-65
2021/01/24 03:39:52;;;;;;;16.37;13.63;;;5.10;99.90;;;;;;5007054;28;20670;-65
2021/01/24 03:42:37;;;;;;;15.57;12.90;;;5.10;99.90;;;;;;5018596;28;20651;-65
2021/01/24 03:45:21;;;;;;;17.07;13.50;;;5.10;99.90;;;;;;5012065;28;20660;-66
2021/01/24 03:48:06;;;;;;;16.60;12.83;;;5.10;99.90;;;;;;5002023;28;20632;-65
2021/01/24 03:50:51;;;;;;;15.00;13.07;;;5.10;99.90;;;;;;5000344;28;20795;-64
2021/01/24 03:53:35;;;;;;;17.50;13.77;;;5.00;99.90;;;;;;4998781;28;20592;-66
2021/01/24 03:56:20;;;;;;;15.60;13.63;;;5.10;99.90;;;;;;5019100;28;20715;-64
2021/01/24 03:59:05;;;;;;;19.17;14.20;;;5.20;99.90;;;;;;5019377;28;20881;-64
2021/01/24 04:01:49;;;;;;;18.13;13.60;;;5.00;99.90;;;;;;5009309;28;21105;-65
2021/01/24 04:04:34;;;;;;;16.40;13.20;;;5.00;99.90;;;;;;5006592;28;20666;-66
2021/01/24 04:07:20;;;;;;;16.40;13.13;;;5.00;99.90;;;;;;5006396;28;20646;-63
2021/01/24 04:10:10;;;;;;;17.57;14.20;;;5.00;99.90;;;;;;5004961;28;20658;-64
2021/01/24 04:12:55;;;;;;;18.50;14.00;;;4.90;99.90;;;;;;5019082;28;21265;-66
2021/01/24 04:15:41;;;;;;;17.17;13.80;;;4.90;99.90;;;;;;5012814;28;20593;-64
2021/01/24 04:18:26;;;;;;;19.30;14.13;;;4.90;99.90;;;;;;5000096;28;20688;-66
2021/01/24 04:21:11;;;;;;;17.43;14.30;;;4.90;99.90;;;;;;4990524;28;20801;-65
2021/01/24 04:23:57;;;;;;;19.37;14.90;;;4.90;99.90;;;;;;5007817;28;20655;-64
2021/01/24 04:26:42;;;;;;;19.93;14.13;;;4.90;99.90;;;;;;5001824;28;20671;-65
2021/01/24 04:29:27;;;;;;;17.03;13.70;;;4.90;99.90;;;;;;5004731;28;20817;-65
2021/01/24 04:32:21;;;;;;;19.07;14.67;;;4.80;99.90;;;;;;5022048;28;20647;-67
2021/01/24 04:35:07;;;;;;;16.63;13.50;;;4.90;99.90;;;;;;4999231;28;20700;-63
2021/01/24 04:37:54;;;;;;;18.20;14.13;;;4.90;99.90;;;;;;4997338;28;20727;-64
2021/01/24 04:40:40;;;;;;;16.73;13.27;;;4.90;99.90;;;;;;5003702;28;20654;-66
2021/01/24 04:43:26;;;;;;;16.50;12.90;;;4.90;99.90;;;;;;5009701;28;20615;-65
2021/01/24 04:46:13;;;;;;;15.47;13.33;;;4.90;99.90;;;;;;5009129;28;20596;-66
2021/01/24 04:48:59;;;;;;;15.57;12.93;;;4.80;99.90;;;;;;5000890;28;20635;-63
2021/01/24 04:51:44;;;;;;;16.40;13.23;;;4.80;99.90;;;;;;5021001;28;21229;-65
2021/01/24 04:54:30;;;;;;;17.37;13.50;;;4.80;99.90;;;;;;5019683;28;20624;-65
2021/01/24 04:57:20;;;;;;;17.63;13.93;;;4.80;99.90;;;;;;5008338;28;20626;-66
2021/01/24 05:00:06;;;;;;;15.40;13.50;;;4.80;99.90;;;;;;5007062;28;20639;-63
2021/01/24 05:03:02;;;;;;;17.70;13.40;;;4.80;99.90;;;;;;5002689;28;20636;-65
2021/01/24 05:05:52;;;;;;;18.27;14.70;;;4.80;99.90;;;;;;5000912;28;20970;-66
2021/01/24 05:08:46;;;;;;;16.13;14.10;;;4.80;99.90;;;;;;5007051;28;21228;-63
2021/01/24 05:11:47;;;;;;;18.23;13.30;;;4.80;99.90;;;;;;5014169;28;20667;-65
2021/01/24 05:14:32;;;;;;;16.20;13.53;;;4.80;99.90;;;;;;5024758;28;20622;-66
2021/01/24 05:17:17;;;;;;;16.30;14.07;;;4.70;99.90;;;;;;4991615;28;21965;-64
2021/01/24 05:20:02;;;;;;;15.93;12.50;;;4.70;99.90;;;;;;5007561;28;20655;-65
2021/01/24 05:22:46;;;;;;;14.80;12.27;;;4.70;99.90;;;;;;5004099;28;20604;-66
2021/01/24 05:25:34;;;;;;;15.77;13.00;;;4.70;99.90;;;;;;5020766;28;20663;-65
2021/01/24 05:28:23;;;;;;;15.53;12.97;;;4.70;99.90;;;;;;5022458;28;20635;-64
2021/01/24 05:31:08;;;;;;;15.60;12.73;;;4.70;99.90;;;;;;5022399;28;20730;-65
2021/01/24 05:33:56;;;;;;;17.10;13.43;;;4.70;99.90;;;;;;5007252;28;20694;-65
2021/01/24 05:36:47;;;;;;;17.20;13.73;;;4.70;99.90;;;;;;5001451;28;20987;-66
2021/01/24 05:39:34;;;;;;;16.83;13.17;;;4.70;99.90;;;;;;5006337;28;20655;-65
2021/01/24 05:42:19;;;;;;;18.03;13.83;;;4.60;99.90;;;;;;4994390;28;20718;-64
2021/01/24 05:45:36;;;;;;;14.87;13.17;;;4.60;99.90;;;;;;4978047;28;20655;-66
2021/01/24 05:48:21;;;;;;;16.03;13.67;;;4.60;99.90;;;;;;5008353;28;20721;-66
2021/01/24 05:51:06;;;;;;;16.63;13.90;;;4.60;99.90;;;;;;4992258;28;21261;-64
2021/01/24 05:53:50;;;;;;;17.13;13.60;;;4.60;99.90;;;;;;5022705;28;20625;-65
2021/01/24 05:56:35;;;;;;;17.47;13.77;;;4.50;99.90;;;;;;5009794;28;20770;-65
2021/01/24 05:59:22;;;;;;;15.83;13.30;;;4.50;99.90;;;;;;5020452;28;20977;-64
2021/01/24 06:02:06;;;;;;;14.20;12.57;;;4.50;99.90;;;;;;5023002;28;21177;-65
2021/01/24 06:04:51;;;;;;;17.80;13.90;;;4.50;99.90;;;;;;4989622;28;20786;-67
2021/01/24 06:07:36;;;;;;;15.53;12.90;;;4.50;99.90;;;;;;5006867;28;20636;-65
2021/01/24 06:10:21;;;;;;;17.50;13.13;;;4.50;99.90;;;;;;5018557;28;21855;-66
2021/01/24 06:13:08;;;;;;;17.10;13.47;;;4.50;99.90;;;;;;5002637;28;21027;-65
2021/01/24 06:15:54;;;;;;;16.63;13.73;;;4.50;99.90;;;;;;4996404;28;20626;-66
2021/01/24 06:18:59;;;;;;;14.37;12.27;;;4.50;99.90;;;;;;5008255;28;20655;-66
2021/01/24 06:21:53;;;;;;;18.20;13.80;;;4.50;99.90;;;;;;5004287;28;20803;-66
2021/01/24 06:24:45;;;;;;;16.70;13.77;;;4.50;99.90;;;;;;5003232;28;20627;-66
2021/01/24 06:27:37;;;;;;;15.20;12.50;;;4.50;99.90;;;;;;5015519;28;21236;-67
2021/01/24 06:30:26;;;;;;;18.60;13.60;;;4.40;99.90;;;;;;4994719;28;20655;-66
2021/01/24 06:33:15;;;;;;;17.07;14.43;;;4.50;99.90;;;;;;5005902;28;20718;-65
2021/01/24 06:36:02;;;;;;;16.20;13.43;;;4.40;99.90;;;;;;5007333;28;21237;-66
2021/01/24 06:38:54;;;;;;;19.47;13.97;;;4.50;99.90;;;;;;5010614;28;20703;-63
2021/01/24 06:41:46;;;;;;;18.30;14.90;;;4.40;99.90;;;;;;4987939;28;21254;-65
2021/01/24 06:44:40;;;;;;;17.20;14.00;;;4.50;99.90;;;;;;4968830;28;20695;-65
2021/01/24 06:47:39;;;;;;;20.20;15.00;;;4.50;99.90;;;;;;5016762;28;20646;-66
2021/01/24 06:50:43;;;;;;;16.13;13.07;;;4.40;99.90;;;;;;5005900;28;20778;-65
2021/01/24 06:53:28;;;;;;;19.70;14.10;;;4.40;99.90;;;;;;5008001;28;20922;-66
2021/01/24 06:56:16;;;;;;;18.07;14.80;;;4.40;99.90;;;;;;5020256;28;20615;-62
2021/01/24 06:59:01;;;;;;;18.57;14.90;;;4.50;99.90;;;;;;5006049;28;20623;-66
2021/01/24 07:01:48;;;;;;;20.90;15.73;;;4.50;99.90;;;;;;5005378;28;20623;-66
2021/01/24 07:04:35;;;;;;;17.90;14.10;;;4.50;99.90;;;;;;4997209;28;20720;-65
2021/01/24 07:07:19;;;;;;;23.83;15.40;;;4.60;99.90;;;;;;4996024;28;22650;-66
2021/01/24 07:10:07;;;;;;;21.10;15.57;;;4.50;99.90;;;;;;5016830;28;20758;-65
2021/01/24 07:12:54;;;;;;;19.50;15.47;;;4.50;99.90;;;;;;5019812;28;20616;-66
2021/01/24 07:15:40;;;;;;;18.80;14.10;;;4.40;99.90;;;;;;5004917;28;20591;-66
2021/01/24 07:18:25;;;;;;;17.70;14.50;;;4.50;99.90;;;;;;5003255;28;20714;-65
2021/01/24 07:21:11;;;;;;;18.97;14.97;;;4.50;99.90;;;;;;5012505;28;20663;-65
2021/01/24 07:23:56;;;;;;;18.90;14.57;;;4.50;99.90;;;;;;5005445;28;20958;-64
2021/01/24 07:26:40;;;;;;;18.40;14.17;;;4.50;99.90;;;;;;5008825;28;20639;-65
2021/01/24 07:29:25;;;;;;;17.23;13.83;;;4.50;99.90;;;;;;4994683;28;20780;-66
2021/01/24 07:32:11;;;;;;;18.47;14.60;;;4.50;99.90;;;;;;5013034;28;20591;-65
2021/01/24 07:34:56;;;;;;;20.53;14.60;;;4.50;99.90;;;;;;5009850;28;21205;-64
2021/01/24 07:37:41;;;;;;;19.00;14.60;;;4.50;99.90;;;;;;5013012;28;20643;-66
2021/01/24 07:40:28;;;;;;;18.40;14.70;;;4.60;99.90;;;;;;5006708;28;21323;-67
2021/01/24 07:43:15;;;;;;;18.50;14.40;;;4.50;99.90;;;;;;4996192;28;21177;-65
2021/01/24 07:46:00;;;;;;;20.00;15.33;;;4.50;99.90;;;;;;5008912;28;20658;-66
2021/01/24 07:48:44;;;;;;;19.50;14.77;;;4.50;99.90;;;;;;5003018;28;20655;-65
2021/01/24 07:51:31;;;;;;;20.83;15.47;;;4.60;99.90;;;;;;4996917;28;20608;-64
2021/01/24 07:54:19;;;;;;;19.70;14.30;;;4.50;99.90;;;;;;5000182;28;20591;-62
2021/01/24 07:57:05;;;;;;;17.97;14.30;;;4.60;99.90;;;;;;5002031;28;20791;-66
2021/01/24 07:59:50;;;;;;;18.37;14.97;;;4.60;99.90;;;;;;4998739;28;21058;-66
2021/01/24 08:02:36;;;;;;;18.23;14.80;;;4.60;99.90;;;;;;4997951;28;20616;-71
2021/01/24 08:05:22;;;;;;;19.20;14.83;;;4.60;99.90;;;;;;4991288;28;20676;-67
2021/01/24 08:08:09;;;;;;;21.43;14.20;;;4.60;99.90;;;;;;5008472;28;20726;-64
2021/01/24 08:10:53;;;;;;;16.83;13.97;;;4.60;99.90;;;;;;5003390;28;20699;-67
2021/01/24 08:13:39;;;;;;;15.67;13.80;;;4.60;99.90;;;;;;4996193;28;20596;-66
2021/01/24 08:19:03;;;;;;;16.97;14.13;;;4.60;99.90;;;;;;5025258;28;20649;-75
2021/01/24 08:21:50;;;;;;;18.40;14.93;;;4.60;99.90;;;;;;5056816;28;21114;-72
2021/01/24 08:24:35;;;;;;;19.93;15.43;;;4.60;99.90;;;;;;5041465;28;20831;-74
2021/01/24 08:27:20;;;;;;;18.27;14.93;;;4.60;99.90;;;;;;5008511;28;21463;-77
2021/01/24 08:30:06;;;;;;;19.63;15.67;;;4.60;99.90;;;;;;5012027;28;21495;-77
2021/01/24 08:32:51;;;;;;;16.57;14.50;;;4.60;99.90;;;;;;5023101;28;20662;-77
2021/01/24 08:35:35;;;;;;;18.17;13.80;;;4.60;99.90;;;;;;5010775;28;20719;-78
2021/01/24 08:38:20;;;;;;;18.83;15.20;;;4.60;99.90;;;;;;5016956;28;20674;-75
2021/01/24 08:41:05;;;;;;;19.90;15.63;;;4.60;99.90;;;;;;5005175;28;21661;-75
2021/01/24 08:44:01;;;;;;;20.13;15.57;;;4.60;99.90;;;;;;5010294;28;20715;-74
2021/01/24 08:46:51;;;;;;;20.30;16.10;;;4.60;99.90;;;;;;5016996;28;20712;-74
2021/01/24 08:49:36;;;;;;;19.93;14.77;;;4.60;99.90;;;;;;5021178;28;20738;-76
2021/01/24 08:52:20;;;;;;;19.60;14.80;;;4.70;99.90;;;;;;5021105;28;20620;-75
2021/01/24 08:55:06;;;;;;;20.43;16.23;;;4.70;99.90;;;;;;5019534;28;20641;-76
2021/01/24 08:57:51;;;;;;;20.17;15.53;;;4.70;99.90;;;;;;5021481;28;21339;-74
2021/01/24 09:00:35;;;;;;;20.47;15.03;;;4.70;99.90;;;;;;5023614;28;20760;-76
2021/01/24 09:03:23;;;;;;;18.87;14.57;;;4.70;99.90;;;;;;5031051;28;20606;-74
2021/01/24 09:06:19;;;;;;;20.70;15.43;;;4.70;99.90;;;;;;5016610;28;20692;-74
2021/01/24 09:09:03;;;;;;;22.07;15.90;;;4.70;99.90;;;;;;5016146;28;20598;-75
2021/01/24 09:11:50;;;;;;;19.07;14.87;;;4.70;99.90;;;;;;5021122;28;20664;-74
2021/01/24 09:14:35;;;;;;;18.53;15.17;;;4.70;99.90;;;;;;5020748;28;20717;-74
2021/01/24 09:17:20;;;;;;;19.33;15.57;;;4.60;99.90;;;;;;5022183;28;20738;-75
2021/01/24 09:20:06;;;;;;;19.47;15.67;;;4.70;99.90;;;;;;5026945;28;21241;-74
2021/01/24 09:22:51;;;;;;;19.70;15.10;;;4.70;99.90;;;;;;5023640;28;20599;-74
2021/01/24 09:25:36;;;;;;;22.43;17.13;;;4.70;99.90;;;;;;5029745;28;20866;-74
2021/01/24 09:28:21;;;;;;;20.80;15.63;;;4.80;99.90;;;;;;5021822;28;20853;-74
2021/01/24 09:31:05;;;;;;;19.43;16.13;;;4.80;99.90;;;;;;5014001;28;21790;-74
2021/01/24 09:33:50;;;;;;;18.70;15.20;;;4.90;99.90;;;;;;5017231;28;20587;-74
2021/01/24 09:36:35;;;;;;;19.67;15.50;;;4.90;99.90;;;;;;5018294;28;20602;-75
2021/01/24 09:39:19;;;;;;;18.80;14.27;;;5.00;99.90;;;;;;5020593;28;20653;-75
2021/01/24 09:42:04;;;;;;;19.60;15.37;;;5.00;99.90;;;;;;5012321;28;20747;-74
2021/01/24 09:44:49;;;;;;;23.30;16.60;;;5.00;99.90;;;;;;5019081;28;20633;-75
2021/01/24 09:47:36;;;;;;;18.40;15.03;;;5.00;99.90;;;;;;5031831;28;20756;-74
2021/01/24 09:50:22;;;;;;;20.80;15.83;;;5.10;99.90;;;;;;5015133;28;20668;-76
2021/01/24 09:53:07;;;;;;;18.73;15.43;;;5.10;99.90;;;;;;5013898;28;21451;-74
2021/01/24 09:55:51;;;;;;;17.77;14.50;;;5.10;99.90;;;;;;5019105;28;20780;-74
2021/01/24 09:58:36;;;;;;;18.67;14.40;;;5.00;99.90;;;;;;5028482;28;21278;-74
2021/01/24 10:01:21;;;;;;;19.30;14.30;;;5.10;99.90;;;;;;5017163;28;21740;-74
2021/01/24 10:04:05;;;;;;;17.23;13.93;;;5.10;99.90;;;;;;5019893;28;20633;-74
2021/01/24 10:06:50;;;;;;;16.60;13.30;;;5.10;99.90;;;;;;5013701;28;20690;-72
2021/01/24 10:09:35;;;;;;;16.90;13.37;;;5.10;99.90;;;;;;5017241;28;21420;-72
2021/01/24 10:12:19;;;;;;;13.67;11.70;;;5.10;99.90;;;;;;5019398;28;20728;-72
2021/01/24 10:15:04;;;;;;;14.40;12.07;;;5.20;99.90;;;;;;5042460;28;20590;-72
2021/01/24 10:17:49;;;;;;;14.77;11.60;;;5.20;99.90;;;;;;5037325;28;20665;-74
2021/01/24 10:20:34;;;;;;;15.83;11.83;;;5.20;99.90;;;;;;5021620;28;21233;-74
2021/01/24 10:23:22;;;;;;;13.43;10.70;;;5.20;99.90;;;;;;5001081;28;20587;-74
2021/01/24 10:26:07;;;;;;;13.97;11.73;;;5.20;99.90;;;;;;5005508;28;21010;-74
2021/01/24 10:28:52;;;;;;;13.80;12.40;;;5.20;99.90;;;;;;4994144;28;20638;-73
2021/01/24 10:31:37;;;;;;;14.10;11.23;;;5.30;99.90;;;;;;5004063;28;20638;-73
2021/01/24 10:34:22;;;;;;;16.03;12.27;;;5.20;99.90;;;;;;5006057;28;21174;-73
2021/01/24 10:37:07;;;;;;;14.37;11.90;;;5.20;99.90;;;;;;5003003;28;20642;-73
2021/01/24 10:39:51;;;;;;;14.87;12.30;;;5.10;99.90;;;;;;4998529;28;20956;-73
2021/01/24 10:42:40;;;;;;;14.27;11.60;;;5.20;99.90;;;;;;5016673;28;20593;-73
2021/01/24 10:45:25;;;;;;;14.93;12.40;;;5.20;99.90;;;;;;5038309;28;20653;-74
2021/01/24 10:48:10;;;;;;;16.90;12.50;;;5.20;99.90;;;;;;5031091;28;20740;-75
2021/01/24 10:50:55;;;;;;;14.40;12.73;;;5.20;99.90;;;;;;5013140;28;20645;-76
2021/01/24 10:53:39;;;;;;;14.47;12.20;;;5.30;99.90;;;;;;5014825;28;21180;-73
2021/01/24 10:56:23;;;;;;;16.03;12.90;;;5.30;99.90;;;;;;5004688;28;21077;-72
2021/01/24 10:59:08;;;;;;;14.37;12.27;;;5.30;99.90;;;;;;5024982;28;20621;-73
2021/01/24 11:01:52;;;;;;;16.40;12.33;;;5.30;99.90;;;;;;5036468;28;21284;-74
2021/01/24 11:04:37;;;;;;;14.33;11.90;;;5.30;99.90;;;;;;5029462;28;20664;-74
2021/01/24 11:07:22;;;;;;;14.87;12.80;;;5.30;99.90;;;;;;5032909;28;21223;-74
2021/01/24 11:10:08;;;;;;;14.57;12.77;;;5.30;99.90;;;;;;5038131;28;20621;-73
2021/01/24 11:12:53;;;;;;;14.97;12.60;;;5.40;99.90;;;;;;5035531;28;20785;-74
2021/01/24 11:15:37;;;;;;;14.73;12.30;;;5.40;99.90;;;;;;5029182;28;20594;-73
2021/01/24 11:18:22;;;;;;;14.87;12.80;;;5.40;99.90;;;;;;5033217;28;21243;-75
2021/01/24 11:21:06;;;;;;;15.10;13.03;;;5.40;99.90;;;;;;5045567;28;20626;-73
2021/01/24 11:23:50;;;;;;;14.27;12.77;;;5.40;99.90;;;;;;5030008;28;21370;-74
2021/01/24 11:26:35;;;;;;;15.80;12.43;;;5.40;99.90;;;;;;5039237;28;20660;-74
2021/01/24 11:29:20;;;;;;;14.93;12.30;;;5.40;99.90;;;;;;5036808;28;21427;-74
2021/01/24 11:32:05;;;;;;;14.67;12.20;;;5.50;99.90;;;;;;5032223;28;21128;-75
2021/01/24 11:34:51;;;;;;;15.33;12.40;;;5.50;99.90;;;;;;5035262;28;21085;-74
2021/01/24 11:37:35;;;;;;;13.00;11.60;;;5.50;99.90;;;;;;5031428;28;21167;-75
2021/01/24 11:40:20;;;;;;;16.30;12.33;;;5.50;99.90;;;;;;5052564;28;20772;-74
2021/01/24 11:43:04;;;;;;;17.63;13.27;;;5.60;99.90;;;;;;5034768;28;20688;-74
2021/01/24 11:45:49;;;;;;;14.77;12.77;;;5.60;99.90;;;;;;5034885;28;20712;-73
2021/01/24 11:48:34;;;;;;;14.60;12.60;;;5.60;99.90;;;;;;5035018;28;20737;-74
2021/01/24 11:51:18;;;;;;;16.97;13.10;;;5.70;99.90;;;;;;5046360;28;20618;-75
2021/01/24 11:54:05;;;;;;;14.30;12.80;;;5.70;99.90;;;;;;5041132;28;20607;-74
2021/01/24 11:56:51;;;;;;;16.97;12.80;;;5.70;99.90;;;;;;5035090;28;20780;-74
2021/01/24 11:59:36;;;;;;;17.70;13.60;;;5.70;99.90;;;;;;5039864;28;21240;-75
2021/01/24 12:02:24;;;;;;;15.37;11.83;;;5.70;99.90;;;;;;5039522;28;20646;-74
2021/01/24 12:05:12;;;;;;;15.20;13.00;;;5.70;99.90;;;;;;5037423;28;20649;-71
2021/01/24 12:07:57;;;;;;;17.13;13.87;;;5.70;99.90;;;;;;5045010;28;21031;-74
2021/01/24 12:10:42;;;;;;;16.70;12.97;;;5.70;99.90;;;;;;5039750;28;20633;-74
2021/01/24 12:13:29;;;;;;;19.10;15.10;;;5.70;99.90;;;;;;5041708;28;20962;-74
2021/01/24 12:16:16;;;;;;;16.10;14.00;;;5.70;99.90;;;;;;5037184;28;20637;-74
2021/01/24 12:19:01;;;;;;;16.50;13.83;;;5.60;99.90;;;;;;5039961;28;20672;-74
2021/01/24 12:21:46;;;;;;;18.13;13.87;;;5.60;99.90;;;;;;5027536;28;20615;-74
2021/01/24 12:24:30;;;;;;;15.10;12.77;;;5.70;99.90;;;;;;5045729;28;20646;-74
2021/01/24 12:27:14;;;;;;;19.07;14.80;;;5.70;99.90;;;;;;5030173;28;20716;-74
2021/01/24 12:29:59;;;;;;;17.23;13.93;;;5.70;99.90;;;;;;5038951;28;20796;-74
2021/01/24 12:32:44;;;;;;;19.50;14.93;;;5.60;99.90;;;;;;5033470;28;21165;-74
2021/01/24 12:35:28;;;;;;;17.10;14.20;;;5.70;99.90;;;;;;5050695;28;20757;-74
2021/01/24 12:38:13;;;;;;;21.20;15.27;;;5.70;99.90;;;;;;5036632;28;20812;-74
2021/01/24 12:40:57;;;;;;;18.53;14.50;;;5.60;99.90;;;;;;5047856;28;21040;-74
2021/01/24 12:43:42;;;;;;;17.20;14.00;;;5.60;99.90;;;;;;5037511;28;20598;-74
2021/01/24 12:46:26;;;;;;;19.20;15.07;;;5.70;99.90;;;;;;5037781;28;20653;-74
2021/01/24 12:49:11;;;;;;;18.50;15.10;;;5.70;99.90;;;;;;5040339;28;20692;-74
2021/01/24 12:51:55;;;;;;;17.07;14.27;;;5.80;99.90;;;;;;5038198;28;20661;-74
2021/01/24 12:54:40;;;;;;;17.77;14.40;;;5.80;99.90;;;;;;5051345;28;20617;-74
2021/01/24 12:57:25;;;;;;;18.00;15.57;;;5.90;99.90;;;;;;5039906;28;20805;-74
2021/01/24 13:00:10;;;;;;;19.23;14.87;;;5.90;99.90;;;;;;5043430;28;20617;-74
2021/01/24 13:02:54;;;;;;;17.83;15.37;;;5.90;99.90;;;;;;5051244;28;20630;-74
2021/01/24 13:05:39;;;;;;;17.70;14.33;;;5.90;99.90;;;;;;5036621;28;20681;-74
2021/01/24 13:08:23;;;;;;;19.17;14.90;;;5.90;99.90;;;;;;5036688;28;20658;-74
2021/01/24 13:11:08;;;;;;;21.23;16.00;;;6.00;99.90;;;;;;5053417;28;20768;-74
2021/01/24 13:13:54;;;;;;;18.93;16.20;;;6.00;99.90;;;;;;5036761;28;20587;-74
2021/01/24 13:16:38;;;;;;;18.53;15.50;;;6.00;99.90;;;;;;5037801;28;20672;-74
2021/01/24 13:19:23;;;;;;;19.43;16.07;;;6.00;99.90;;;;;;5036324;28;20588;-74
2021/01/24 13:22:08;;;;;;;19.60;15.93;;;6.00;99.90;;;;;;5057297;28;20579;-75
2021/01/24 13:24:52;;;;;;;21.30;16.80;;;6.00;99.90;;;;;;5058818;28;20669;-74
2021/01/24 13:27:37;;;;;;;19.17;15.90;;;6.00;99.90;;;;;;5056397;28;20651;-74
2021/01/24 13:30:22;;;;;;;22.63;15.97;;;6.00;99.90;;;;;;5038545;28;20607;-74
2021/01/24 13:33:06;;;;;;;23.30;17.73;;;6.00;99.90;;;;;;5044994;28;20586;-74
2021/01/24 13:35:51;;;;;;;21.17;16.57;;;6.00;99.90;;;;;;5047143;28;20674;-74
2021/01/24 13:38:35;;;;;;;20.17;15.93;;;5.90;99.90;;;;;;5041289;28;20757;-74
2021/01/24 13:41:20;;;;;;;18.40;14.77;;;5.90;99.90;;;;;;5036815;28;20624;-74
2021/01/24 13:44:05;;;;;;;22.10;16.80;;;5.90;99.90;;;;;;5044456;28;21276;-74
2021/01/24 13:46:50;;;;;;;20.20;15.90;;;5.90;99.90;;;;;;5051862;28;20696;-74
2021/01/24 13:49:34;;;;;;;17.73;15.67;;;5.90;99.90;;;;;;5043319;28;20963;-74
2021/01/24 13:52:18;;;;;;;21.40;16.17;;;5.80;99.90;;;;;;5039364;28;20628;-74
2021/01/24 13:55:05;;;;;;;17.60;15.60;;;5.80;99.90;;;;;;5037038;28;20630;-74
2021/01/24 13:57:49;;;;;;;19.10;16.10;;;5.90;99.90;;;;;;5039489;28;21223;-75
2021/01/24 14:00:36;;;;;;;19.00;15.60;;;5.80;99.90;;;;;;5036731;28;20748;-74
2021/01/24 14:03:21;;;;;;;20.50;16.87;;;5.80;99.90;;;;;;5038201;28;20621;-74
2021/01/24 14:06:05;;;;;;;19.80;16.93;;;5.90;99.90;;;;;;5037622;28;20981;-74
2021/01/24 14:08:50;;;;;;;20.83;16.00;;;5.80;99.90;;;;;;5035689;28;20809;-74
2021/01/24 14:11:34;;;;;;;19.10;15.90;;;5.80;99.90;;;;;;5042574;28;20633;-74
2021/01/24 14:14:19;;;;;;;20.50;16.30;;;5.90;99.90;;;;;;5038071;28;20609;-74